createdAt,value
2022-11-10T00:00:07.167Z,3.10
2022-11-10T00:00:17.301Z,3.20
2022-11-10T00:00:27.439Z,3.00
2022-11-10T00:00:37.292Z,3.00
2022-11-10T00:00:47.452Z,3.00
2022-11-10T00:00:57.328Z,3.10
2022-11-10T00:01:07.459Z,3.20
2022-11-10T00:01:17.233Z,2.70
2022-11-10T00:01:27.189Z,2.70
2022-11-10T00:01:37.275Z,2.80
2022-11-10T00:01:47.330Z,3.00
2022-11-10T00:01:57.340Z,3.10
2022-11-10T00:02:07.437Z,3.40
2022-11-10T00:02:17.338Z,3.40
2022-11-10T00:02:27.190Z,3.10
2022-11-10T00:02:37.244Z,3.20
2022-11-10T00:02:47.158Z,4.40
2022-11-10T00:02:57.290Z,4.40
2022-11-10T00:03:07.160Z,4.30
2022-11-10T00:03:17.223Z,3.10
2022-11-10T00:03:27.208Z,3.60
2022-11-10T00:03:37.288Z,3.60
2022-11-10T00:03:47.403Z,3.30
2022-11-10T00:03:57.554Z,3.00
2022-11-10T00:04:07.415Z,2.90
2022-11-10T00:04:17.442Z,3.00
2022-11-10T00:04:27.383Z,3.00
2022-11-10T00:04:37.315Z,3.00
2022-11-10T00:04:47.393Z,2.90
2022-11-10T00:04:57.316Z,2.70
2022-11-10T00:05:07.415Z,2.70
2022-11-10T00:05:17.412Z,3.00
2022-11-10T00:05:27.391Z,3.20
2022-11-10T00:05:37.230Z,3.40
2022-11-10T00:05:47.443Z,3.70
2022-11-10T00:05:57.491Z,3.60
2022-11-10T00:06:07.336Z,3.40
2022-11-10T00:06:17.237Z,2.80
2022-11-10T00:06:27.383Z,2.60
2022-11-10T00:06:37.385Z,2.60
2022-11-10T00:06:47.437Z,2.60
2022-11-10T00:06:57.459Z,3.10
2022-11-10T00:07:07.471Z,3.00
2022-11-10T00:07:17.192Z,3.10
2022-11-10T00:07:27.455Z,2.60
2022-11-10T00:07:37.274Z,2.60
2022-11-10T00:07:47.207Z,3.40
2022-11-10T00:07:57.347Z,3.70
2022-11-10T00:08:07.405Z,3.80
2022-11-10T00:08:17.221Z,3.00
2022-11-10T00:08:27.154Z,2.90
2022-11-10T00:08:37.351Z,2.80
2022-11-10T00:08:47.435Z,2.90
2022-11-10T00:08:57.316Z,2.60
2022-11-10T00:09:07.348Z,2.90
2022-11-10T00:09:17.199Z,3.60
2022-11-10T00:09:27.465Z,3.80
2022-11-10T00:09:37.193Z,3.50
2022-11-10T00:09:47.225Z,2.80
2022-11-10T00:09:57.188Z,3.00
2022-11-10T00:10:07.206Z,3.10
2022-11-10T00:10:17.461Z,3.30
2022-11-10T00:10:27.387Z,3.10
2022-11-10T00:10:37.367Z,3.00
2022-11-10T00:10:47.185Z,2.70
2022-11-10T00:10:57.223Z,2.70
2022-11-10T00:11:07.352Z,2.80
2022-11-10T00:11:17.340Z,3.00
2022-11-10T00:11:27.268Z,3.50
2022-11-10T00:11:37.253Z,3.50
2022-11-10T00:11:47.488Z,3.60
2022-11-10T00:11:57.389Z,3.00
2022-11-10T00:12:07.418Z,3.10
2022-11-10T00:12:17.289Z,3.10
2022-11-10T00:12:27.246Z,2.80
2022-11-10T00:12:37.314Z,2.80
2022-11-10T00:12:47.293Z,2.50
2022-11-10T00:12:57.171Z,2.80
2022-11-10T00:13:07.408Z,3.00
2022-11-10T00:13:17.269Z,3.10
2022-11-10T00:13:27.287Z,2.80
2022-11-10T00:13:37.183Z,2.50
2022-11-10T00:13:47.256Z,2.60
2022-11-10T00:13:57.309Z,2.90
2022-11-10T00:14:07.370Z,2.90
2022-11-10T00:14:17.168Z,2.90
2022-11-10T00:14:27.191Z,2.70
2022-11-10T00:14:37.260Z,2.60
2022-11-10T00:14:47.212Z,2.50
2022-11-10T00:14:57.229Z,2.50
2022-11-10T00:15:07.277Z,2.90
2022-11-10T00:15:17.353Z,3.20
2022-11-10T00:15:27.237Z,3.10
2022-11-10T00:15:37.384Z,3.50
2022-11-10T00:15:47.448Z,3.60
2022-11-10T00:15:57.272Z,3.60
2022-11-10T00:16:07.200Z,2.80
2022-11-10T00:16:17.171Z,2.70
2022-11-10T00:16:27.214Z,3.00
2022-11-10T00:16:37.152Z,2.60
2022-11-10T00:16:47.426Z,2.90
2022-11-10T00:16:57.462Z,3.30
2022-11-10T00:17:07.321Z,4.20
2022-11-10T00:17:17.346Z,3.60
2022-11-10T00:17:27.477Z,3.10
2022-11-10T00:17:37.312Z,3.10
2022-11-10T00:17:47.296Z,3.20
2022-11-10T00:17:57.282Z,3.70
2022-11-10T00:18:07.413Z,3.20
2022-11-10T00:18:17.372Z,3.10
2022-11-10T00:18:27.332Z,2.90
2022-11-10T00:18:37.254Z,2.70
2022-11-10T00:18:47.258Z,2.90
2022-11-10T00:18:57.305Z,2.50
2022-11-10T00:19:07.338Z,2.50
2022-11-10T00:19:17.242Z,2.40
2022-11-10T00:19:27.217Z,2.50
2022-11-10T00:19:37.316Z,2.60
2022-11-10T00:19:47.445Z,2.60
2022-11-10T00:19:57.517Z,2.70
2022-11-10T00:20:07.321Z,2.70
2022-11-10T00:20:17.420Z,2.60
2022-11-10T00:20:27.396Z,2.60
2022-11-10T00:20:37.220Z,2.40
2022-11-10T00:20:47.407Z,2.70
2022-11-10T00:20:57.232Z,2.80
2022-11-10T00:21:07.291Z,3.20
2022-11-10T00:21:17.249Z,3.20
2022-11-10T00:21:27.184Z,3.10
2022-11-10T00:21:37.245Z,2.70
2022-11-10T00:21:47.407Z,2.70
2022-11-10T00:21:57.214Z,2.80
2022-11-10T00:22:07.241Z,2.60
2022-11-10T00:22:17.206Z,2.60
2022-11-10T00:22:27.256Z,2.70
2022-11-10T00:22:37.183Z,3.00
2022-11-10T00:22:47.241Z,3.00
2022-11-10T00:22:57.247Z,2.80
2022-11-10T00:23:07.285Z,2.60
2022-11-10T00:23:17.334Z,2.50
2022-11-10T00:23:27.475Z,3.00
2022-11-10T00:23:37.337Z,2.90
2022-11-10T00:23:47.270Z,3.70
2022-11-10T00:23:57.331Z,3.40
2022-11-10T00:24:07.234Z,3.70
2022-11-10T00:24:17.353Z,3.20
2022-11-10T00:24:27.282Z,3.10
2022-11-10T00:24:37.217Z,3.60
2022-11-10T00:24:47.407Z,3.30
2022-11-10T00:24:57.377Z,3.40
2022-11-10T00:25:07.274Z,2.80
2022-11-10T00:25:17.384Z,2.60
2022-11-10T00:25:27.285Z,2.80
2022-11-10T00:25:37.300Z,2.60
2022-11-10T00:25:47.206Z,3.00
2022-11-10T00:25:57.306Z,2.50
2022-11-10T00:26:07.211Z,3.00
2022-11-10T00:26:17.242Z,2.70
2022-11-10T00:26:27.229Z,2.70
2022-11-10T00:26:37.228Z,2.50
2022-11-10T00:26:47.240Z,2.60
2022-11-10T00:26:57.453Z,2.90
2022-11-10T00:27:07.289Z,2.90
2022-11-10T00:27:17.354Z,3.10
2022-11-10T00:27:27.444Z,3.10
2022-11-10T00:27:37.406Z,3.40
2022-11-10T00:27:47.363Z,3.30
2022-11-10T00:27:57.244Z,3.00
2022-11-10T00:28:07.390Z,3.70
2022-11-10T00:28:17.246Z,3.30
2022-11-10T00:28:27.474Z,3.30
2022-11-10T00:28:37.421Z,2.50
2022-11-10T00:28:47.265Z,2.50
2022-11-10T00:28:57.230Z,2.50
2022-11-10T00:29:07.268Z,2.60
2022-11-10T00:29:17.371Z,2.90
2022-11-10T00:29:27.211Z,2.90
2022-11-10T00:29:37.233Z,3.00
2022-11-10T00:29:47.283Z,2.90
2022-11-10T00:29:57.470Z,3.00
2022-11-10T00:30:07.455Z,3.00
2022-11-10T00:30:17.466Z,3.00
2022-11-10T00:30:27.255Z,2.80
2022-11-10T00:30:37.200Z,2.80
2022-11-10T00:30:47.266Z,2.70
2022-11-10T00:30:57.302Z,2.80
2022-11-10T00:31:07.297Z,2.50
2022-11-10T00:31:17.501Z,2.50
2022-11-10T00:31:27.258Z,2.60
2022-11-10T00:31:37.398Z,3.20
2022-11-10T00:31:47.382Z,3.20
2022-11-10T00:31:57.233Z,3.40
2022-11-10T00:32:07.305Z,2.90
2022-11-10T00:32:17.184Z,2.90
2022-11-10T00:32:27.470Z,2.90
2022-11-10T00:32:37.199Z,2.80
2022-11-10T00:32:47.273Z,3.00
2022-11-10T00:32:57.414Z,2.50
2022-11-10T00:33:07.196Z,2.40
2022-11-10T00:33:17.210Z,2.30
2022-11-10T00:33:27.474Z,2.40
2022-11-10T00:33:37.469Z,2.60
2022-11-10T00:33:47.382Z,2.80
2022-11-10T00:33:57.473Z,2.90
2022-11-10T00:34:07.313Z,3.00
2022-11-10T00:34:17.369Z,3.20
2022-11-10T00:34:27.214Z,2.90
2022-11-10T00:34:37.269Z,2.80
2022-11-10T00:34:47.175Z,2.70
2022-11-10T00:34:57.306Z,2.80
2022-11-10T00:35:07.255Z,3.00
2022-11-10T00:35:17.219Z,2.90
2022-11-10T00:35:27.421Z,3.90
2022-11-10T00:35:37.183Z,3.20
2022-11-10T00:35:47.407Z,3.30
2022-11-10T00:35:57.312Z,2.50
2022-11-10T00:36:07.260Z,3.40
2022-11-10T00:36:17.191Z,3.30
2022-11-10T00:36:27.198Z,3.20
2022-11-10T00:36:37.184Z,2.50
2022-11-10T00:36:47.200Z,3.10
2022-11-10T00:36:57.299Z,2.90
2022-11-10T00:37:07.385Z,3.60
2022-11-10T00:37:17.207Z,3.10
2022-11-10T00:37:27.407Z,3.80
2022-11-10T00:37:37.190Z,3.20
2022-11-10T00:37:47.249Z,3.30
2022-11-10T00:37:57.429Z,2.90
2022-11-10T00:38:07.436Z,2.70
2022-11-10T00:38:17.416Z,2.70
2022-11-10T00:38:27.455Z,3.10
2022-11-10T00:38:37.337Z,3.20
2022-11-10T00:38:47.467Z,2.90
2022-11-10T00:38:57.366Z,2.40
2022-11-10T00:39:07.204Z,2.70
2022-11-10T00:39:17.204Z,3.10
2022-11-10T00:39:27.311Z,3.60
2022-11-10T00:39:37.405Z,3.60
2022-11-10T00:39:47.225Z,2.90
2022-11-10T00:39:57.264Z,2.40
2022-11-10T00:40:07.416Z,2.30
2022-11-10T00:40:17.329Z,2.50
2022-11-10T00:40:27.340Z,2.50
2022-11-10T00:40:37.347Z,3.20
2022-11-10T00:40:47.212Z,3.00
2022-11-10T00:40:57.407Z,2.80
2022-11-10T00:41:07.266Z,2.30
2022-11-10T00:41:17.416Z,2.60
2022-11-10T00:41:27.286Z,2.70
2022-11-10T00:41:37.252Z,2.50
2022-11-10T00:41:47.180Z,2.80
2022-11-10T00:41:57.298Z,3.00
2022-11-10T00:42:07.213Z,3.50
2022-11-10T00:42:17.368Z,2.90
2022-11-10T00:42:27.367Z,2.80
2022-11-10T00:42:37.219Z,2.60
2022-11-10T00:42:47.375Z,2.60
2022-11-10T00:42:57.362Z,2.60
2022-11-10T00:43:07.198Z,2.50
2022-11-10T00:43:18.642Z,2.90
2022-11-10T00:43:27.255Z,2.80
2022-11-10T00:43:37.417Z,3.10
2022-11-10T00:43:47.350Z,2.70
2022-11-10T00:43:57.193Z,2.70
2022-11-10T00:44:07.179Z,2.60
2022-11-10T00:44:17.446Z,2.50
2022-11-10T00:44:27.230Z,2.60
2022-11-10T00:44:37.423Z,2.70
2022-11-10T00:44:47.400Z,3.10
2022-11-10T00:44:57.352Z,3.00
2022-11-10T00:45:07.318Z,3.10
2022-11-10T00:45:17.280Z,2.90
2022-11-10T00:45:27.163Z,2.80
2022-11-10T00:45:37.430Z,2.40
2022-11-10T00:45:47.366Z,2.50
2022-11-10T00:45:57.204Z,2.70
2022-11-10T00:46:07.493Z,2.60
2022-11-10T00:46:17.248Z,2.50
2022-11-10T00:46:27.207Z,2.30
2022-11-10T00:46:37.393Z,2.20
2022-11-10T00:46:47.277Z,2.80
2022-11-10T00:46:57.413Z,2.80
2022-11-10T00:47:07.225Z,3.10
2022-11-10T00:47:17.371Z,2.70
2022-11-10T00:47:27.372Z,2.60
2022-11-10T00:47:37.279Z,2.40
2022-11-10T00:47:47.334Z,2.40
2022-11-10T00:47:57.459Z,2.60
2022-11-10T00:48:07.325Z,2.90
2022-11-10T00:48:17.305Z,3.00
2022-11-10T00:48:27.332Z,2.80
2022-11-10T00:48:37.195Z,2.60
2022-11-10T00:48:47.277Z,2.80
2022-11-10T00:48:57.282Z,2.50
2022-11-10T00:49:07.266Z,2.70
2022-11-10T00:49:17.233Z,2.50
2022-11-10T00:49:27.401Z,2.60
2022-11-10T00:49:37.627Z,2.40
2022-11-10T00:49:47.251Z,2.50
2022-11-10T00:49:57.228Z,3.60
2022-11-10T00:50:07.212Z,3.50
2022-11-10T00:50:17.240Z,3.30
2022-11-10T00:50:27.426Z,2.80
2022-11-10T00:50:37.174Z,2.80
2022-11-10T00:50:47.495Z,2.50
2022-11-10T00:50:57.448Z,2.20
2022-11-10T00:51:07.209Z,2.30
2022-11-10T00:51:17.236Z,2.50
2022-11-10T00:51:27.184Z,2.60
2022-11-10T00:51:37.278Z,2.80
2022-11-10T00:51:47.444Z,2.70
2022-11-10T00:51:57.283Z,2.40
2022-11-10T00:52:07.344Z,2.40
2022-11-10T00:52:17.167Z,2.40
2022-11-10T00:52:27.299Z,2.80
2022-11-10T00:52:37.379Z,2.50
2022-11-10T00:52:47.372Z,2.40
2022-11-10T00:52:57.184Z,2.20
2022-11-10T00:53:07.270Z,2.30
2022-11-10T00:53:17.387Z,2.40
2022-11-10T00:53:27.201Z,2.60
2022-11-10T00:53:37.159Z,2.70
2022-11-10T00:53:47.225Z,2.80
2022-11-10T00:53:57.167Z,2.80
2022-11-10T00:54:07.198Z,2.80
2022-11-10T00:54:17.333Z,3.30
2022-11-10T00:54:27.299Z,3.80
2022-11-10T00:54:37.429Z,4.10
2022-11-10T00:54:47.277Z,3.30
2022-11-10T00:54:57.414Z,2.70
2022-11-10T00:55:07.435Z,2.50
2022-11-10T00:55:17.225Z,2.40
2022-11-10T00:55:27.281Z,2.30
2022-11-10T00:55:37.295Z,2.50
2022-11-10T00:55:47.399Z,2.60
2022-11-10T00:55:57.371Z,2.60
2022-11-10T00:56:07.184Z,2.60
2022-11-10T00:56:17.300Z,3.10
2022-11-10T00:56:27.228Z,3.20
2022-11-10T00:56:37.458Z,3.20
2022-11-10T00:56:47.402Z,2.60
2022-11-10T00:56:57.215Z,2.70
2022-11-10T00:57:07.299Z,2.80
2022-11-10T00:57:17.253Z,3.40
2022-11-10T00:57:27.247Z,3.20
2022-11-10T00:57:37.157Z,3.00
2022-11-10T00:57:47.202Z,2.40
2022-11-10T00:57:57.443Z,2.70
2022-11-10T00:58:07.437Z,2.70
2022-11-10T00:58:17.260Z,2.70
2022-11-10T00:58:27.182Z,2.90
2022-11-10T00:58:37.381Z,3.30
2022-11-10T00:58:47.354Z,3.60
2022-11-10T00:58:57.450Z,3.60
2022-11-10T00:59:07.313Z,3.20
2022-11-10T00:59:17.428Z,2.90
2022-11-10T00:59:27.450Z,2.60
2022-11-10T00:59:37.344Z,2.60
2022-11-10T00:59:47.247Z,2.90
2022-11-10T00:59:57.271Z,2.70
2022-11-10T01:00:07.356Z,3.10
2022-11-10T01:00:17.183Z,2.70
2022-11-10T01:00:27.189Z,2.70
2022-11-10T01:00:37.441Z,2.50
2022-11-10T01:00:47.218Z,2.70
2022-11-10T01:00:57.373Z,2.80
2022-11-10T01:01:07.456Z,2.90
2022-11-10T01:01:17.346Z,2.80
2022-11-10T01:01:27.446Z,3.00
2022-11-10T01:01:37.675Z,2.80
2022-11-10T01:01:47.372Z,3.00
2022-11-10T01:01:57.281Z,2.80
2022-11-10T01:02:07.324Z,2.70
2022-11-10T01:02:17.221Z,2.50
2022-11-10T01:02:27.394Z,2.40
2022-11-10T01:02:37.255Z,2.30
2022-11-10T01:02:47.196Z,2.80
2022-11-10T01:02:57.171Z,2.50
2022-11-10T01:03:07.389Z,3.10
2022-11-10T01:03:17.197Z,3.20
2022-11-10T01:03:27.230Z,3.20
2022-11-10T01:03:37.420Z,2.70
2022-11-10T01:03:47.242Z,2.30
2022-11-10T01:03:57.393Z,2.40
2022-11-10T01:04:07.292Z,2.60
2022-11-10T01:04:17.179Z,3.50
2022-11-10T01:04:27.227Z,3.50
2022-11-10T01:04:37.209Z,3.20
2022-11-10T01:04:47.286Z,2.50
2022-11-10T01:04:57.447Z,2.50
2022-11-10T01:05:07.413Z,2.80
2022-11-10T01:05:17.160Z,2.90
2022-11-10T01:05:27.514Z,2.90
2022-11-10T01:05:37.230Z,2.80
2022-11-10T01:05:47.247Z,2.70
2022-11-10T01:05:57.369Z,2.70
2022-11-10T01:06:07.321Z,2.60
2022-11-10T01:06:17.274Z,2.70
2022-11-10T01:06:27.212Z,2.60
2022-11-10T01:06:37.312Z,2.60
2022-11-10T01:06:47.479Z,2.30
2022-11-10T01:06:57.454Z,2.40
2022-11-10T01:07:07.502Z,2.40
2022-11-10T01:07:17.290Z,2.20
2022-11-10T01:07:27.241Z,2.30
2022-11-10T01:07:37.354Z,2.40
2022-11-10T01:07:47.229Z,2.50
2022-11-10T01:07:57.240Z,2.40
2022-11-10T01:08:07.410Z,2.40
2022-11-10T01:08:17.285Z,2.40
2022-11-10T01:08:27.368Z,2.30
2022-11-10T01:08:37.157Z,2.60
2022-11-10T01:08:47.204Z,2.60
2022-11-10T01:08:57.436Z,2.60
2022-11-10T01:09:07.375Z,2.10
2022-11-10T01:09:17.411Z,2.20
2022-11-10T01:09:27.420Z,2.70
2022-11-10T01:09:37.241Z,2.60
2022-11-10T01:09:47.467Z,2.80
2022-11-10T01:09:57.270Z,2.50
2022-11-10T01:10:07.182Z,2.60
2022-11-10T01:10:17.214Z,3.40
2022-11-10T01:10:27.443Z,3.50
2022-11-10T01:10:37.362Z,3.20
2022-11-10T01:10:47.238Z,2.60
2022-11-10T01:10:57.399Z,2.40
2022-11-10T01:11:07.199Z,2.60
2022-11-10T01:11:17.467Z,2.30
2022-11-10T01:11:27.226Z,2.70
2022-11-10T01:11:37.352Z,4.00
2022-11-10T01:11:47.350Z,4.40
2022-11-10T01:11:57.368Z,3.80
2022-11-10T01:12:07.370Z,2.50
2022-11-10T01:12:17.244Z,2.80
2022-11-10T01:12:27.435Z,2.70
2022-11-10T01:12:37.244Z,3.50
2022-11-10T01:12:47.428Z,3.30
2022-11-10T01:12:57.160Z,3.10
2022-11-10T01:13:07.342Z,2.80
2022-11-10T01:13:17.287Z,3.00
2022-11-10T01:13:27.283Z,3.80
2022-11-10T01:13:37.283Z,3.70
2022-11-10T01:13:47.421Z,3.00
2022-11-10T01:13:57.435Z,2.30
2022-11-10T01:14:07.203Z,2.00
2022-11-10T01:14:17.331Z,2.00
2022-11-10T01:14:27.274Z,2.00
2022-11-10T01:14:37.399Z,2.20
2022-11-10T01:14:47.187Z,2.30
2022-11-10T01:14:57.399Z,2.40
2022-11-10T01:15:07.172Z,2.40
2022-11-10T01:15:17.343Z,2.10
2022-11-10T01:15:28.125Z,1.90
2022-11-10T01:15:37.192Z,1.90
2022-11-10T01:15:47.386Z,2.00
2022-11-10T01:15:57.239Z,2.10
2022-11-10T01:16:07.228Z,2.20
2022-11-10T01:16:17.402Z,2.50
2022-11-10T01:16:27.289Z,2.90
2022-11-10T01:16:37.433Z,2.60
2022-11-10T01:16:47.389Z,2.50
2022-11-10T01:16:57.398Z,2.40
2022-11-10T01:17:07.203Z,2.40
2022-11-10T01:17:17.278Z,2.20
2022-11-10T01:17:27.256Z,2.30
2022-11-10T01:17:37.338Z,2.30
2022-11-10T01:17:47.262Z,2.50
2022-11-10T01:17:57.230Z,2.40
2022-11-10T01:18:07.328Z,2.60
2022-11-10T01:18:17.266Z,2.40
2022-11-10T01:18:27.272Z,2.40
2022-11-10T01:18:37.218Z,2.30
2022-11-10T01:18:47.276Z,2.60
2022-11-10T01:18:57.312Z,2.40
2022-11-10T01:19:07.229Z,2.30
2022-11-10T01:19:17.241Z,2.20
2022-11-10T01:19:27.417Z,2.10
2022-11-10T01:19:37.216Z,2.40
2022-11-10T01:19:47.328Z,2.20
2022-11-10T01:19:57.369Z,2.20
2022-11-10T01:20:07.288Z,2.20
2022-11-10T01:20:17.305Z,2.20
2022-11-10T01:20:27.452Z,2.30
2022-11-10T01:20:37.430Z,2.80
2022-11-10T01:20:47.351Z,2.80
2022-11-10T01:20:57.465Z,2.60
2022-11-10T01:21:07.440Z,2.20
2022-11-10T01:21:17.184Z,2.20
2022-11-10T01:21:27.187Z,2.10
2022-11-10T01:21:37.152Z,2.00
2022-11-10T01:21:47.379Z,2.00
2022-11-10T01:21:57.372Z,1.90
2022-11-10T01:22:07.340Z,2.10
2022-11-10T01:22:17.344Z,2.20
2022-11-10T01:22:27.399Z,2.60
2022-11-10T01:22:37.265Z,3.00
2022-11-10T01:22:47.394Z,2.60
2022-11-10T01:22:57.397Z,2.50
2022-11-10T01:23:07.167Z,2.30
2022-11-10T01:23:17.312Z,2.70
2022-11-10T01:23:27.358Z,3.10
2022-11-10T01:23:37.341Z,2.80
2022-11-10T01:23:47.451Z,2.80
2022-11-10T01:23:57.349Z,2.10
2022-11-10T01:24:07.388Z,2.30
2022-11-10T01:24:17.389Z,2.10
2022-11-10T01:24:27.391Z,2.70
2022-11-10T01:24:37.176Z,2.70
2022-11-10T01:24:47.463Z,3.60
2022-11-10T01:24:57.409Z,3.60
2022-11-10T01:25:07.403Z,3.90
2022-11-10T01:25:17.179Z,3.00
2022-11-10T01:25:27.355Z,2.50
2022-11-10T01:25:37.325Z,2.10
2022-11-10T01:25:47.402Z,2.10
2022-11-10T01:25:57.278Z,2.80
2022-11-10T01:26:07.293Z,2.90
2022-11-10T01:26:17.334Z,2.90
2022-11-10T01:26:27.478Z,2.20
2022-11-10T01:26:37.410Z,2.20
2022-11-10T01:26:47.465Z,2.20
2022-11-10T01:26:57.261Z,2.10
2022-11-10T01:27:07.162Z,2.20
2022-11-10T01:27:17.325Z,2.60
2022-11-10T01:27:27.304Z,3.10
2022-11-10T01:27:37.350Z,3.60
2022-11-10T01:27:47.231Z,3.40
2022-11-10T01:27:57.300Z,2.90
2022-11-10T01:28:07.446Z,2.20
2022-11-10T01:28:17.436Z,2.70
2022-11-10T01:28:27.217Z,2.60
2022-11-10T01:28:37.310Z,2.40
2022-11-10T01:28:47.379Z,2.30
2022-11-10T01:28:57.892Z,3.20
2022-11-10T01:29:07.399Z,3.40
2022-11-10T01:29:17.443Z,2.80
2022-11-10T01:29:27.226Z,2.00
2022-11-10T01:29:37.254Z,2.00
2022-11-10T01:29:47.398Z,2.20
2022-11-10T01:29:57.374Z,2.30
2022-11-10T01:30:07.263Z,2.30
2022-11-10T01:30:17.256Z,2.70
2022-11-10T01:30:27.231Z,3.30
2022-11-10T01:30:37.180Z,3.50
2022-11-10T01:30:47.465Z,3.20
2022-11-10T01:30:57.521Z,2.60
2022-11-10T01:31:07.177Z,2.30
2022-11-10T01:31:17.237Z,2.10
2022-11-10T01:31:27.199Z,2.20
2022-11-10T01:31:37.438Z,2.00
2022-11-10T01:31:47.406Z,2.40
2022-11-10T01:31:57.375Z,2.40
2022-11-10T01:32:07.279Z,3.30
2022-11-10T01:32:17.201Z,2.80
2022-11-10T01:32:27.350Z,2.60
2022-11-10T01:32:37.371Z,2.50
2022-11-10T01:32:47.216Z,2.70
2022-11-10T01:32:57.299Z,2.80
2022-11-10T01:33:07.416Z,2.40
2022-11-10T01:33:17.309Z,2.30
2022-11-10T01:33:27.507Z,2.60
2022-11-10T01:33:37.233Z,2.40
2022-11-10T01:33:47.338Z,2.50
2022-11-10T01:33:57.477Z,2.10
2022-11-10T01:34:07.320Z,2.40
2022-11-10T01:34:17.299Z,2.20
2022-11-10T01:34:27.259Z,2.20
2022-11-10T01:34:37.295Z,2.60
2022-11-10T01:34:47.266Z,2.60
2022-11-10T01:34:57.163Z,2.50
2022-11-10T01:35:07.455Z,1.80
2022-11-10T01:35:17.273Z,2.00
2022-11-10T01:35:27.226Z,1.80
2022-11-10T01:35:37.210Z,2.10
2022-11-10T01:35:47.172Z,2.00
2022-11-10T01:35:57.198Z,2.20
2022-11-10T01:36:07.259Z,2.20
2022-11-10T01:36:17.228Z,2.20
2022-11-10T01:36:27.485Z,2.10
2022-11-10T01:36:37.359Z,2.10
2022-11-10T01:36:47.308Z,2.00
2022-11-10T01:36:57.303Z,2.00
2022-11-10T01:37:07.251Z,1.90
2022-11-10T01:37:17.350Z,1.90
2022-11-10T01:37:27.390Z,2.00
2022-11-10T01:37:37.413Z,2.20
2022-11-10T01:37:47.390Z,2.80
2022-11-10T01:37:57.219Z,2.70
2022-11-10T01:38:07.485Z,2.70
2022-11-10T01:38:17.255Z,2.10
2022-11-10T01:38:27.343Z,2.10
2022-11-10T01:38:37.340Z,2.30
2022-11-10T01:38:47.427Z,2.20
2022-11-10T01:38:57.195Z,2.90
2022-11-10T01:39:07.475Z,3.30
2022-11-10T01:39:17.360Z,4.20
2022-11-10T01:39:27.387Z,3.90
2022-11-10T01:39:37.381Z,3.00
2022-11-10T01:39:47.220Z,2.50
2022-11-10T01:39:57.354Z,2.00
2022-11-10T01:40:07.487Z,2.30
2022-11-10T01:40:17.415Z,2.20
2022-11-10T01:40:27.301Z,2.50
2022-11-10T01:40:37.321Z,2.20
2022-11-10T01:40:47.361Z,2.20
2022-11-10T01:40:57.475Z,2.00
2022-11-10T01:41:07.158Z,2.10
2022-11-10T01:41:17.299Z,2.10
2022-11-10T01:41:27.393Z,2.00
2022-11-10T01:41:37.183Z,2.20
2022-11-10T01:41:47.285Z,2.40
2022-11-10T01:41:57.252Z,2.80
2022-11-10T01:42:07.199Z,2.70
2022-11-10T01:42:17.330Z,2.40
2022-11-10T01:42:27.253Z,2.30
2022-11-10T01:42:37.390Z,2.10
2022-11-10T01:42:47.235Z,1.70
2022-11-10T01:42:57.371Z,1.70
2022-11-10T01:43:07.285Z,1.70
2022-11-10T01:43:17.269Z,1.90
2022-11-10T01:43:27.268Z,2.00
2022-11-10T01:43:37.341Z,2.10
2022-11-10T01:43:47.418Z,2.30
2022-11-10T01:43:57.417Z,2.50
2022-11-10T01:44:07.396Z,2.10
2022-11-10T01:44:17.345Z,2.20
2022-11-10T01:44:27.284Z,2.10
2022-11-10T01:44:37.164Z,2.60
2022-11-10T01:44:47.247Z,2.10
2022-11-10T01:44:57.389Z,1.90
2022-11-10T01:45:07.293Z,1.80
2022-11-10T01:45:17.257Z,1.90
2022-11-10T01:45:27.549Z,2.00
2022-11-10T01:45:37.361Z,1.80
2022-11-10T01:45:47.434Z,1.90
2022-11-10T01:45:57.223Z,1.90
2022-11-10T01:46:07.240Z,2.20
2022-11-10T01:46:17.189Z,2.10
2022-11-10T01:46:27.424Z,2.00
2022-11-10T01:46:37.251Z,1.90
2022-11-10T01:46:47.350Z,1.90
2022-11-10T01:46:57.187Z,2.10
2022-11-10T01:47:07.453Z,2.00
2022-11-10T01:47:17.205Z,2.30
2022-11-10T01:47:27.346Z,2.10
2022-11-10T01:47:37.271Z,2.10
2022-11-10T01:47:47.262Z,2.00
2022-11-10T01:47:57.418Z,2.10
2022-11-10T01:48:07.253Z,2.70
2022-11-10T01:48:17.158Z,2.60
2022-11-10T01:48:27.192Z,2.20
2022-11-10T01:48:37.343Z,2.30
2022-11-10T01:48:47.325Z,2.40
2022-11-10T01:48:57.415Z,2.50
2022-11-10T01:49:07.425Z,2.00
2022-11-10T01:49:17.253Z,1.90
2022-11-10T01:49:27.412Z,2.10
2022-11-10T01:49:37.428Z,2.10
2022-11-10T01:49:47.412Z,2.10
2022-11-10T01:49:57.258Z,2.20
2022-11-10T01:50:07.444Z,2.20
2022-11-10T01:50:17.151Z,2.10
2022-11-10T01:50:27.414Z,2.10
2022-11-10T01:50:37.453Z,2.30
2022-11-10T01:50:47.303Z,2.40
2022-11-10T01:50:57.157Z,2.40
2022-11-10T01:51:07.374Z,1.80
2022-11-10T01:51:17.214Z,2.00
2022-11-10T01:51:27.232Z,2.00
2022-11-10T01:51:37.238Z,2.20
2022-11-10T01:51:47.191Z,2.20
2022-11-10T01:51:57.403Z,2.20
2022-11-10T01:52:07.199Z,2.00
2022-11-10T01:52:17.327Z,2.00
2022-11-10T01:52:27.300Z,2.20
2022-11-10T01:52:37.353Z,2.10
2022-11-10T01:52:47.295Z,2.10
2022-11-10T01:52:57.276Z,2.10
2022-11-10T01:53:07.441Z,2.20
2022-11-10T01:53:17.386Z,2.70
2022-11-10T01:53:27.234Z,2.80
2022-11-10T01:53:37.314Z,2.30
2022-11-10T01:53:47.386Z,2.00
2022-11-10T01:53:57.380Z,2.00
2022-11-10T01:54:07.326Z,2.10
2022-11-10T01:54:17.231Z,2.20
2022-11-10T01:54:27.415Z,2.00
2022-11-10T01:54:37.438Z,2.00
2022-11-10T01:54:47.181Z,2.60
2022-11-10T01:54:57.359Z,3.00
2022-11-10T01:55:07.373Z,3.60
2022-11-10T01:55:17.433Z,2.60
2022-11-10T01:55:27.349Z,2.90
2022-11-10T01:55:37.293Z,2.20
2022-11-10T01:55:47.267Z,2.40
2022-11-10T01:55:57.251Z,3.30
2022-11-10T01:56:07.360Z,3.30
2022-11-10T01:56:17.216Z,4.00
2022-11-10T01:56:27.183Z,2.70
2022-11-10T01:56:37.433Z,2.80
2022-11-10T01:56:47.442Z,2.10
2022-11-10T01:56:57.334Z,2.00
2022-11-10T01:57:07.159Z,1.70
2022-11-10T01:57:17.275Z,1.70
2022-11-10T01:57:27.356Z,1.80
2022-11-10T01:57:37.233Z,2.10
2022-11-10T01:57:47.432Z,2.30
2022-11-10T01:57:57.408Z,2.10
2022-11-10T01:58:07.201Z,2.20
2022-11-10T01:58:17.477Z,2.10
2022-11-10T01:58:27.459Z,2.20
2022-11-10T01:58:37.299Z,1.80
2022-11-10T01:58:47.309Z,1.70
2022-11-10T01:58:57.370Z,1.60
2022-11-10T01:59:07.377Z,1.60
2022-11-10T01:59:17.255Z,1.60
2022-11-10T01:59:27.230Z,1.80
2022-11-10T01:59:37.371Z,1.60
2022-11-10T01:59:47.297Z,1.40
2022-11-10T01:59:57.434Z,1.20
2022-11-10T02:00:07.258Z,1.50
2022-11-10T02:00:17.191Z,1.60
2022-11-10T02:00:27.470Z,1.50
2022-11-10T02:00:37.295Z,1.60
2022-11-10T02:00:47.349Z,2.10
2022-11-10T02:00:57.476Z,2.00
2022-11-10T02:01:07.457Z,2.30
2022-11-10T02:01:17.412Z,2.50
2022-11-10T02:01:27.363Z,2.40
2022-11-10T02:01:37.395Z,2.20
2022-11-10T02:01:47.325Z,1.40
2022-11-10T02:01:57.357Z,1.40
2022-11-10T02:02:07.250Z,1.40
2022-11-10T02:02:17.209Z,1.40
2022-11-10T02:02:27.364Z,1.60
2022-11-10T02:02:37.303Z,1.30
2022-11-10T02:02:47.230Z,1.30
2022-11-10T02:02:57.300Z,1.30
2022-11-10T02:03:07.395Z,1.40
2022-11-10T02:03:17.180Z,1.40
2022-11-10T02:03:27.252Z,1.50
2022-11-10T02:03:37.222Z,1.70
2022-11-10T02:03:47.260Z,2.50
2022-11-10T02:03:57.327Z,2.70
2022-11-10T02:04:07.360Z,2.30
2022-11-10T02:04:17.241Z,1.60
2022-11-10T02:04:27.285Z,1.30
2022-11-10T02:04:37.317Z,1.80
2022-11-10T02:04:47.261Z,1.70
2022-11-10T02:04:57.439Z,1.80
2022-11-10T02:05:07.234Z,1.70
2022-11-10T02:05:17.356Z,1.60
2022-11-10T02:05:27.268Z,1.30
2022-11-10T02:05:37.309Z,1.10
2022-11-10T02:05:47.213Z,1.10
2022-11-10T02:05:57.242Z,1.20
2022-11-10T02:06:07.240Z,1.10
2022-11-10T02:06:17.368Z,1.30
2022-11-10T02:06:27.393Z,1.60
2022-11-10T02:06:37.501Z,1.70
2022-11-10T02:06:47.306Z,1.80
2022-11-10T02:06:57.349Z,1.50
2022-11-10T02:07:07.286Z,2.10
2022-11-10T02:07:17.294Z,1.60
2022-11-10T02:07:27.203Z,1.60
2022-11-10T02:07:37.348Z,1.10
2022-11-10T02:07:47.277Z,1.40
2022-11-10T02:07:57.417Z,1.60
2022-11-10T02:08:07.366Z,1.90
2022-11-10T02:08:17.452Z,1.60
2022-11-10T02:08:27.288Z,1.40
2022-11-10T02:08:37.336Z,1.00
2022-11-10T02:08:47.171Z,1.10
2022-11-10T02:08:57.447Z,1.10
2022-11-10T02:09:07.178Z,1.20
2022-11-10T02:09:17.290Z,1.40
2022-11-10T02:09:27.279Z,1.60
2022-11-10T02:09:37.336Z,1.60
2022-11-10T02:09:47.289Z,1.40
2022-11-10T02:09:57.434Z,1.10
2022-11-10T02:10:07.293Z,0.90
2022-11-10T02:10:17.257Z,0.80
2022-11-10T02:10:27.224Z,1.30
2022-11-10T02:10:37.242Z,1.20
2022-11-10T02:10:47.162Z,1.10
2022-11-10T02:10:57.419Z,0.70
2022-11-10T02:11:07.247Z,0.80
2022-11-10T02:11:17.310Z,1.20
2022-11-10T02:11:27.327Z,1.10
2022-11-10T02:11:37.296Z,1.20
2022-11-10T02:11:47.293Z,1.00
2022-11-10T02:11:57.328Z,1.10
2022-11-10T02:12:07.345Z,1.10
2022-11-10T02:12:17.227Z,1.00
2022-11-10T02:12:27.243Z,1.10
2022-11-10T02:12:37.489Z,1.00
2022-11-10T02:12:47.499Z,1.00
2022-11-10T02:12:57.441Z,1.20
2022-11-10T02:13:07.427Z,1.50